Time;durP1;ratioP1;P1;durP2;ratioP2;P2;SDS_P1;SDS_P2;PMS_P1;PMS_P2;Temp;Humidity;BMP_temperature;BMP_pressure;BME280_temperature;BME280_humidity;BME280_pressure;Samples;Min_cycle;Max_cycle;Signal;HPM_P1;HPM_P2
2023/01/30 00:01:01;;;;;;;19.85;11.88;;;;;;;;;;5080903;28;20036;-69
2023/01/30 00:03:26;;;;;;;17.88;11.30;;;;;;;;;;5077578;28;20813;-69
2023/01/30 00:05:52;;;;;;;17.42;10.75;;;;;;;;;;5073092;28;20119;-68
2023/01/30 00:08:18;;;;;;;17.98;10.50;;;;;;;;;;5076067;28;20035;-68
2023/01/30 00:10:46;;;;;;;19.98;10.63;;;;;;;;;;5077947;28;20032;-68
2023/01/30 00:13:13;;;;;;;18.50;10.85;;;;;;;;;;5076806;28;20040;-68
2023/01/30 00:15:39;;;;;;;23.52;12.48;;;;;;;;;;5075043;28;20072;-68
2023/01/30 00:18:05;;;;;;;32.35;15.55;;;;;;;;;;5073947;28;20119;-68
2023/01/30 00:20:31;;;;;;;31.38;15.32;;;;;;;;;;5081246;28;20469;-68
2023/01/30 00:22:57;;;;;;;34.53;17.38;;;;;;;;;;5072407;28;20032;-67
2023/01/30 00:25:24;;;;;;;30.63;13.80;;;;;;;;;;5074460;28;20561;-68
2023/01/30 00:27:50;;;;;;;25.00;14.00;;;;;;;;;;5080303;28;20064;-68
2023/01/30 00:30:15;;;;;;;17.23;10.23;;;;;;;;;;5063315;28;20063;-68
2023/01/30 00:32:41;;;;;;;23.20;13.02;;;;;;;;;;5074823;28;20032;-68
2023/01/30 00:35:07;;;;;;;24.90;13.05;;;;;;;;;;5067486;28;20108;-68
2023/01/30 00:37:33;;;;;;;22.55;12.88;;;;;;;;;;5076880;28;20029;-68
2023/01/30 00:39:58;;;;;;;21.13;12.52;;;;;;;;;;5079113;28;20024;-68
2023/01/30 00:47:55;;;;;;;21.00;11.88;;;;;;;;;;5074558;28;20040;-68
2023/01/30 00:50:21;;;;;;;18.00;10.98;;;;;;;;;;5076186;28;20032;-68
2023/01/30 00:52:46;;;;;;;25.48;13.65;;;;;;;;;;5070773;28;20028;-68
2023/01/30 00:55:12;;;;;;;20.10;10.18;;;;;;;;;;5072612;28;20473;-68
2023/01/30 00:57:37;;;;;;;22.67;12.00;;;;;;;;;;5066069;28;20044;-68
2023/01/30 01:00:04;;;;;;;16.00;10.40;;;;;;;;;;5077730;28;20056;-68
2023/01/30 01:02:30;;;;;;;20.20;12.25;;;;;;;;;;5078624;28;20624;-68
2023/01/30 01:04:57;;;;;;;18.88;12.18;;;;;;;;;;5079444;28;20071;-68
2023/01/30 01:07:22;;;;;;;19.55;11.82;;;;;;;;;;5077048;28;20063;-67
2023/01/30 01:09:48;;;;;;;18.25;11.27;;;;;;;;;;5071214;28;20090;-68
2023/01/30 01:12:14;;;;;;;22.75;11.73;;;;;;;;;;5063075;28;20089;-68
2023/01/30 01:14:39;;;;;;;24.83;13.95;;;;;;;;;;5074518;28;20060;-68
2023/01/30 01:17:05;;;;;;;23.98;13.45;;;;;;;;;;5060502;28;20039;-68
2023/01/30 01:19:30;;;;;;;30.13;15.02;;;;;;;;;;5058993;28;20058;-68
2023/01/30 01:21:56;;;;;;;26.92;16.35;;;;;;;;;;5078921;28;20037;-68
2023/01/30 01:24:21;;;;;;;26.48;14.95;;;;;;;;;;5061491;28;20040;-68
2023/01/30 01:26:47;;;;;;;28.30;16.42;;;;;;;;;;5082471;28;20642;-68
2023/01/30 01:29:14;;;;;;;25.88;15.50;;;;;;;;;;5058658;28;20604;-68
2023/01/30 01:31:41;;;;;;;31.77;16.70;;;;;;;;;;5064780;28;20089;-68
2023/01/30 01:34:06;;;;;;;22.08;12.13;;;;;;;;;;5059390;28;20028;-68
2023/01/30 01:36:32;;;;;;;23.85;13.80;;;;;;;;;;5074175;28;20116;-68
2023/01/30 01:38:57;;;;;;;25.73;14.60;;;;;;;;;;5057499;28;20043;-67
2023/01/30 01:41:23;;;;;;;21.67;12.30;;;;;;;;;;5056898;28;20047;-68
2023/01/30 01:44:10;;;;;;;28.48;15.45;;;;;;;;;;5060206;28;20499;-68
2023/01/30 01:46:55;;;;;;;26.67;14.60;;;;;;;;;;5069134;28;20032;-68
2023/01/30 01:49:26;;;;;;;27.92;14.77;;;;;;;;;;5083673;28;20768;-68
2023/01/30 01:51:57;;;;;;;27.42;13.90;;;;;;;;;;5076701;28;20068;-68
2023/01/30 01:54:47;;;;;;;24.23;13.13;;;;;;;;;;5078142;28;20028;-68
2023/01/30 01:57:41;;;;;;;22.33;12.07;;;;;;;;;;5081559;28;20051;-68
2023/01/30 02:00:12;;;;;;;23.95;13.05;;;;;;;;;;5061124;28;20444;-68
2023/01/30 02:02:58;;;;;;;29.45;14.60;;;;;;;;;;5066720;28;20028;-68
2023/01/30 02:05:29;;;;;;;25.23;12.45;;;;;;;;;;5070603;28;20688;-68
2023/01/30 02:08:08;;;;;;;21.77;12.68;;;;;;;;;;5083587;28;20400;-68
2023/01/30 02:11:05;;;;;;;26.23;12.98;;;;;;;;;;5067372;28;20483;-68
2023/01/30 02:13:31;;;;;;;21.85;13.23;;;;;;;;;;5061152;28;20504;-68
2023/01/30 02:15:58;;;;;;;23.30;12.70;;;;;;;;;;5080903;28;20035;-68
2023/01/30 02:18:24;;;;;;;26.98;13.52;;;;;;;;;;5078291;28;20034;-69
2023/01/30 02:21:16;;;;;;;23.48;13.15;;;;;;;;;;5069427;28;20035;-68
2023/01/30 02:24:08;;;;;;;19.40;11.32;;;;;;;;;;5085365;28;20047;-68
2023/01/30 02:26:56;;;;;;;23.38;11.98;;;;;;;;;;5081142;28;20032;-68
2023/01/30 02:29:53;;;;;;;22.85;12.98;;;;;;;;;;5075583;28;20456;-69
2023/01/30 02:32:24;;;;;;;16.90;10.93;;;;;;;;;;5083781;28;20036;-68
2023/01/30 02:35:02;;;;;;;24.23;11.85;;;;;;;;;;5081135;28;20032;-68
2023/01/30 02:37:33;;;;;;;20.73;11.95;;;;;;;;;;5063650;28;20040;-68
2023/01/30 02:40:32;;;;;;;20.98;12.07;;;;;;;;;;5065707;28;20032;-68
2023/01/30 02:43:00;;;;;;;18.48;10.85;;;;;;;;;;5072363;28;20660;-68
2023/01/30 02:45:40;;;;;;;23.25;13.13;;;;;;;;;;5083112;28;20101;-69
2023/01/30 02:48:12;;;;;;;25.35;13.27;;;;;;;;;;5082760;28;20124;-69
2023/01/30 02:50:43;;;;;;;22.88;12.38;;;;;;;;;;5081779;28;20158;-68
2023/01/30 02:53:10;;;;;;;26.15;14.70;;;;;;;;;;5082865;28;20085;-69
2023/01/30 02:55:40;;;;;;;20.00;12.07;;;;;;;;;;5064599;28;20032;-69
2023/01/30 02:58:05;;;;;;;10.40;7.72;;;;;;;;;;5059041;28;20035;-69
2023/01/30 03:01:06;;;;;;;17.52;10.18;;;;;;;;;;5082317;28;20094;-68
2023/01/30 03:03:43;;;;;;;25.77;12.80;;;;;;;;;;5069574;28;20386;-69
2023/01/30 03:06:41;;;;;;;23.98;13.77;;;;;;;;;;5081567;28;20044;-69
2023/01/30 03:09:37;;;;;;;14.10;9.95;;;;;;;;;;5066177;28;20088;-68
2023/01/30 03:12:33;;;;;;;19.95;11.68;;;;;;;;;;5066073;28;20106;-68
2023/01/30 03:15:04;;;;;;;22.88;12.50;;;;;;;;;;5061969;28;20040;-69
2023/01/30 03:17:31;;;;;;;6.53;5.18;;;;;;;;;;5066449;28;20059;-69
2023/01/30 03:19:58;;;;;;;16.00;9.90;;;;;;;;;;5065692;28;20035;-69
2023/01/30 03:22:23;;;;;;;11.93;6.75;;;;;;;;;;5077235;28;20036;-69
2023/01/30 03:24:51;;;;;;;11.80;7.32;;;;;;;;;;5063645;28;20039;-70
2023/01/30 03:27:18;;;;;;;7.95;5.47;;;;;;;;;;5063185;28;20087;-69
2023/01/30 03:29:46;;;;;;;15.95;9.98;;;;;;;;;;5064204;28;20031;-67
2023/01/30 03:32:11;;;;;;;10.90;7.43;;;;;;;;;;5064215;28;20040;-69
2023/01/30 03:34:37;;;;;;;25.58;14.30;;;;;;;;;;5065634;28;20543;-69
2023/01/30 03:37:03;;;;;;;18.63;10.30;;;;;;;;;;5065368;28;20043;-67
2023/01/30 03:39:33;;;;;;;12.15;8.13;;;;;;;;;;5050463;28;20081;-67
2023/01/30 03:41:59;;;;;;;14.15;8.43;;;;;;;;;;5069122;28;20380;-67
2023/01/30 03:44:25;;;;;;;11.68;7.32;;;;;;;;;;5063450;28;20086;-67
2023/01/30 03:46:51;;;;;;;19.70;11.65;;;;;;;;;;5064962;28;20024;-67
2023/01/30 03:49:17;;;;;;;20.50;10.68;;;;;;;;;;5044999;28;20115;-67
2023/01/30 03:51:43;;;;;;;21.27;11.55;;;;;;;;;;5061616;28;20491;-67
2023/01/30 03:54:08;;;;;;;16.35;10.25;;;;;;;;;;5063030;28;20028;-67
2023/01/30 03:56:34;;;;;;;16.77;11.10;;;;;;;;;;5082005;28;20103;-67
2023/01/30 03:59:00;;;;;;;15.75;9.27;;;;;;;;;;5078731;28;20602;-69
2023/01/30 04:01:34;;;;;;;15.25;7.65;;;;;;;;;;5077221;28;20040;-69
2023/01/30 04:04:00;;;;;;;19.73;10.90;;;;;;;;;;5062141;28;20043;-69
2023/01/30 04:06:26;;;;;;;15.10;9.07;;;;;;;;;;5070478;28;20036;-70
2023/01/30 04:08:52;;;;;;;8.93;6.15;;;;;;;;;;5069039;28;20043;-69
2023/01/30 04:11:31;;;;;;;16.35;9.98;;;;;;;;;;5068978;28;20103;-70
2023/01/30 04:13:56;;;;;;;14.43;8.82;;;;;;;;;;5073480;28;20056;-69
2023/01/30 04:16:25;;;;;;;18.88;10.60;;;;;;;;;;5069755;28;20036;-68
2023/01/30 04:19:29;;;;;;;12.85;7.55;;;;;;;;;;5021870;28;20040;-69
2023/01/30 04:21:54;;;;;;;17.50;10.65;;;;;;;;;;5019894;28;20037;-69
2023/01/30 04:24:20;;;;;;;24.23;10.25;;;;;;;;;;5004714;28;20064;-69
2023/01/30 04:26:45;;;;;;;17.48;10.57;;;;;;;;;;5026603;28;20072;-69
2023/01/30 04:29:11;;;;;;;16.52;9.35;;;;;;;;;;5024046;28;20135;-69
2023/01/30 04:31:41;;;;;;;15.80;10.57;;;;;;;;;;5021516;28;20700;-68
2023/01/30 04:34:26;;;;;;;17.23;10.13;;;;;;;;;;5023607;28;20065;-70
2023/01/30 04:36:51;;;;;;;15.27;8.98;;;;;;;;;;5021573;28;20069;-69
2023/01/30 04:39:17;;;;;;;15.90;9.10;;;;;;;;;;5009819;28;20054;-69
2023/01/30 04:41:43;;;;;;;13.27;8.75;;;;;;;;;;5021160;28;20146;-69
2023/01/30 04:44:09;;;;;;;12.02;8.50;;;;;;;;;;5021294;28;20045;-69
2023/01/30 04:47:01;;;;;;;15.18;8.98;;;;;;;;;;5018712;28;20037;-69
2023/01/30 04:49:27;;;;;;;11.60;8.52;;;;;;;;;;5030338;28;20048;-69
2023/01/30 04:51:53;;;;;;;15.65;9.68;;;;;;;;;;5066042;28;20121;-69
2023/01/30 04:54:18;;;;;;;14.27;9.63;;;;;;;;;;5062688;28;20044;-69
2023/01/30 04:56:44;;;;;;;13.50;9.20;;;;;;;;;;5065496;28;20036;-69
2023/01/30 04:59:09;;;;;;;14.18;8.35;;;;;;;;;;5060197;28;20032;-69
2023/01/30 05:01:40;;;;;;;18.90;9.57;;;;;;;;;;5060649;28;20107;-69
2023/01/30 05:04:07;;;;;;;16.48;9.23;;;;;;;;;;5060197;28;20127;-69
2023/01/30 05:06:33;;;;;;;17.33;9.73;;;;;;;;;;5075653;28;20024;-69
2023/01/30 05:09:00;;;;;;;16.83;9.48;;;;;;;;;;5077221;28;20093;-69
2023/01/30 05:11:27;;;;;;;16.30;10.35;;;;;;;;;;5079391;28;20036;-69
2023/01/30 05:13:53;;;;;;;16.90;10.05;;;;;;;;;;5075411;28;20129;-69
2023/01/30 05:16:20;;;;;;;13.07;8.52;;;;;;;;;;5076726;28;20036;-69
2023/01/30 05:18:45;;;;;;;10.32;7.70;;;;;;;;;;5078269;28;20056;-69
2023/01/30 05:21:17;;;;;;;11.63;7.75;;;;;;;;;;5078281;28;20103;-68
2023/01/30 05:23:43;;;;;;;12.98;8.40;;;;;;;;;;5077523;28;20479;-69
2023/01/30 05:26:10;;;;;;;8.65;6.63;;;;;;;;;;5078125;28;20505;-69
2023/01/30 05:28:35;;;;;;;11.05;8.40;;;;;;;;;;5075153;28;20055;-69
2023/01/30 05:31:03;;;;;;;11.23;6.80;;;;;;;;;;5077677;28;20036;-69
2023/01/30 05:33:29;;;;;;;13.63;8.88;;;;;;;;;;5078271;28;20043;-68
2023/01/30 05:35:54;;;;;;;8.85;6.25;;;;;;;;;;5075587;28;20032;-69
2023/01/30 05:38:21;;;;;;;18.73;12.05;;;;;;;;;;5079104;28;20036;-69
2023/01/30 05:40:47;;;;;;;30.77;14.55;;;;;;;;;;5076679;28;20036;-69
2023/01/30 05:43:12;;;;;;;20.08;11.32;;;;;;;;;;5073711;28;20047;-69
2023/01/30 05:45:38;;;;;;;60.33;24.67;;;;;;;;;;5077888;28;20028;-70
2023/01/30 05:48:04;;;;;;;23.05;10.90;;;;;;;;;;5077656;28;20128;-69
2023/01/30 05:50:30;;;;;;;60.60;24.67;;;;;;;;;;5074555;28;20123;-69
2023/01/30 05:52:56;;;;;;;15.93;9.77;;;;;;;;;;5073243;28;20029;-70
2023/01/30 05:55:22;;;;;;;10.48;8.48;;;;;;;;;;5074748;28;20032;-69
2023/01/30 05:57:47;;;;;;;8.07;6.32;;;;;;;;;;5078232;28;20036;-68
2023/01/30 06:00:13;;;;;;;11.98;7.75;;;;;;;;;;5068944;28;20023;-69
2023/01/30 06:02:39;;;;;;;19.98;8.60;;;;;;;;;;5080153;28;20032;-69
2023/01/30 06:05:05;;;;;;;9.70;7.30;;;;;;;;;;5072773;28;20028;-69
2023/01/30 06:07:31;;;;;;;10.57;6.35;;;;;;;;;;5079351;28;20047;-69
2023/01/30 06:09:56;;;;;;;12.07;8.50;;;;;;;;;;5075357;28;20040;-69
2023/01/30 06:12:22;;;;;;;14.13;8.65;;;;;;;;;;5075820;28;20398;-69
2023/01/30 06:14:47;;;;;;;12.88;8.50;;;;;;;;;;5077556;28;20074;-70
2023/01/30 06:17:13;;;;;;;12.00;8.07;;;;;;;;;;5073174;28;20028;-67
2023/01/30 06:19:38;;;;;;;11.23;7.10;;;;;;;;;;5073981;28;20025;-69
2023/01/30 06:22:04;;;;;;;14.88;9.38;;;;;;;;;;5076673;28;20459;-67
2023/01/30 06:24:29;;;;;;;14.48;9.40;;;;;;;;;;5076455;28;20044;-70
2023/01/30 06:26:55;;;;;;;15.18;9.75;;;;;;;;;;5081155;28;20032;-70
2023/01/30 06:29:20;;;;;;;12.93;8.38;;;;;;;;;;5073193;28;20067;-69
2023/01/30 06:31:46;;;;;;;11.50;7.63;;;;;;;;;;5077757;28;20056;-69
2023/01/30 06:34:11;;;;;;;11.70;8.25;;;;;;;;;;5081572;28;20032;-69
2023/01/30 06:36:37;;;;;;;16.45;7.22;;;;;;;;;;5076271;28;20032;-70
2023/01/30 06:39:03;;;;;;;13.73;9.63;;;;;;;;;;5076686;28;20081;-69
2023/01/30 06:41:29;;;;;;;9.45;6.65;;;;;;;;;;5081973;28;20047;-68
2023/01/30 06:43:54;;;;;;;15.63;8.98;;;;;;;;;;5079224;28;20033;-67
2023/01/30 06:46:20;;;;;;;11.02;7.88;;;;;;;;;;5080366;28;20033;-68
2023/01/30 06:48:46;;;;;;;14.32;9.82;;;;;;;;;;5077548;28;20498;-67
2023/01/30 06:51:12;;;;;;;13.70;8.65;;;;;;;;;;5078875;28;20024;-67
2023/01/30 06:53:37;;;;;;;13.75;9.20;;;;;;;;;;5080909;28;20530;-67
2023/01/30 06:56:03;;;;;;;10.63;7.45;;;;;;;;;;5080583;28;20031;-67
2023/01/30 06:58:29;;;;;;;11.50;8.55;;;;;;;;;;5082588;28;20031;-66
2023/01/30 07:00:54;;;;;;;12.52;7.22;;;;;;;;;;5082447;28;20047;-66
2023/01/30 07:03:20;;;;;;;13.73;10.02;;;;;;;;;;5083519;28;20498;-65
2023/01/30 07:05:46;;;;;;;10.07;6.50;;;;;;;;;;5080091;28;20390;-67
2023/01/30 07:08:13;;;;;;;9.98;7.25;;;;;;;;;;5063521;28;20407;-68
2023/01/30 07:10:40;;;;;;;13.38;8.82;;;;;;;;;;5080560;28;20344;-68
2023/01/30 07:13:06;;;;;;;14.98;7.03;;;;;;;;;;5076856;28;20036;-67
2023/01/30 07:15:32;;;;;;;12.55;8.05;;;;;;;;;;5081685;28;20043;-65
2023/01/30 07:17:57;;;;;;;12.25;8.50;;;;;;;;;;5077212;28;20178;-68
2023/01/30 07:20:23;;;;;;;9.93;6.82;;;;;;;;;;5077042;28;20036;-67
2023/01/30 07:22:53;;;;;;;16.45;8.80;;;;;;;;;;5080003;28;20483;-67
2023/01/30 07:25:21;;;;;;;9.35;6.53;;;;;;;;;;5077364;28;20079;-67
2023/01/30 07:27:54;;;;;;;9.95;7.47;;;;;;;;;;5076051;28;20040;-68
2023/01/30 07:30:19;;;;;;;10.68;7.45;;;;;;;;;;5082508;28;20044;-67
2023/01/30 07:32:53;;;;;;;10.07;6.68;;;;;;;;;;5076165;28;20043;-68
2023/01/30 07:35:20;;;;;;;12.13;6.88;;;;;;;;;;5078509;28;20064;-67
2023/01/30 07:37:46;;;;;;;7.50;6.20;;;;;;;;;;5077237;28;20028;-68
2023/01/30 07:40:12;;;;;;;6.90;5.40;;;;;;;;;;5081535;28;20036;-67
2023/01/30 07:42:38;;;;;;;9.75;7.13;;;;;;;;;;5078514;28;20086;-68
2023/01/30 07:45:04;;;;;;;9.35;6.53;;;;;;;;;;5085695;28;20046;-68
2023/01/30 07:47:29;;;;;;;10.50;7.30;;;;;;;;;;5078939;28;20040;-68
2023/01/30 07:49:55;;;;;;;13.30;9.15;;;;;;;;;;5080764;28;20373;-67
2023/01/30 07:52:21;;;;;;;8.90;6.25;;;;;;;;;;5079565;28;20059;-67
2023/01/30 07:54:46;;;;;;;12.48;7.10;;;;;;;;;;5078113;28;20062;-65
2023/01/30 07:57:12;;;;;;;11.02;7.15;;;;;;;;;;5085990;28;20059;-67
2023/01/30 07:59:37;;;;;;;9.95;6.68;;;;;;;;;;5080120;28;20068;-67
2023/01/30 08:02:03;;;;;;;10.02;5.13;;;;;;;;;;5077689;28;20046;-67
2023/01/30 08:04:28;;;;;;;7.57;6.28;;;;;;;;;;5076948;28;20105;-67
2023/01/30 08:06:54;;;;;;;9.30;6.75;;;;;;;;;;5075838;28;20031;-67
2023/01/30 08:09:19;;;;;;;12.13;6.00;;;;;;;;;;5076458;28;20063;-67
2023/01/30 08:11:45;;;;;;;6.88;5.70;;;;;;;;;;5074632;28;20132;-67
2023/01/30 08:14:11;;;;;;;6.78;6.03;;;;;;;;;;5079127;28;20135;-67
2023/01/30 08:16:37;;;;;;;11.88;8.00;;;;;;;;;;5073899;28;20534;-67
2023/01/30 08:19:05;;;;;;;10.48;7.40;;;;;;;;;;5080023;28;20081;-67
2023/01/30 08:21:30;;;;;;;11.55;8.65;;;;;;;;;;5078182;28;20150;-67
2023/01/30 08:23:56;;;;;;;10.50;7.65;;;;;;;;;;5058749;28;20115;-67
2023/01/30 08:26:21;;;;;;;9.27;6.43;;;;;;;;;;5077621;28;20094;-67
2023/01/30 08:28:47;;;;;;;9.60;7.20;;;;;;;;;;5078205;28;20506;-67
2023/01/30 08:31:14;;;;;;;11.38;7.40;;;;;;;;;;5078006;28;20442;-67
2023/01/30 08:33:40;;;;;;;11.90;7.75;;;;;;;;;;5079422;28;20032;-67
2023/01/30 08:36:06;;;;;;;12.70;7.63;;;;;;;;;;5074964;28;20039;-67
2023/01/30 08:38:32;;;;;;;19.63;6.90;;;;;;;;;;5081474;28;20039;-67
2023/01/30 08:40:59;;;;;;;8.93;7.22;;;;;;;;;;5074561;28;20033;-67
2023/01/30 08:43:26;;;;;;;10.50;6.20;;;;;;;;;;5077908;28;20119;-67
2023/01/30 08:45:53;;;;;;;10.45;6.65;;;;;;;;;;5076405;28;20094;-66
2023/01/30 08:48:19;;;;;;;10.52;7.25;;;;;;;;;;5074865;28;20051;-67
2023/01/30 08:50:44;;;;;;;8.02;6.00;;;;;;;;;;5076900;28;20388;-67
2023/01/30 08:53:10;;;;;;;9.35;6.53;;;;;;;;;;5080685;28;20040;-67
2023/01/30 08:55:35;;;;;;;10.60;6.85;;;;;;;;;;5073572;28;20432;-67
2023/01/30 08:58:01;;;;;;;6.97;5.45;;;;;;;;;;5079417;28;20028;-67
2023/01/30 09:00:27;;;;;;;10.23;7.32;;;;;;;;;;5076528;28;20044;-66
2023/01/30 09:02:56;;;;;;;8.95;6.72;;;;;;;;;;5077684;28;20135;-67
2023/01/30 09:05:23;;;;;;;7.18;5.57;;;;;;;;;;5077710;28;20028;-67
2023/01/30 09:07:49;;;;;;;10.95;6.68;;;;;;;;;;5069746;28;20038;-67
2023/01/30 09:10:15;;;;;;;8.98;6.90;;;;;;;;;;5057021;28;20060;-66
2023/01/30 09:12:41;;;;;;;7.38;5.90;;;;;;;;;;5078001;28;20503;-66
2023/01/30 09:15:07;;;;;;;12.68;8.25;;;;;;;;;;5078156;28;20070;-66
2023/01/30 09:17:33;;;;;;;7.78;6.07;;;;;;;;;;5074258;28;20112;-66
2023/01/30 09:19:58;;;;;;;8.07;5.10;;;;;;;;;;5076328;28;20114;-66
2023/01/30 09:22:24;;;;;;;6.82;5.50;;;;;;;;;;5075829;28;20403;-67
2023/01/30 09:24:50;;;;;;;7.97;6.28;;;;;;;;;;5072139;28;20040;-67
2023/01/30 09:27:15;;;;;;;10.23;6.05;;;;;;;;;;5075424;28;20037;-66
2023/01/30 09:29:41;;;;;;;6.60;5.80;;;;;;;;;;5080242;28;20044;-67
2023/01/30 09:32:06;;;;;;;8.27;5.60;;;;;;;;;;5077439;28;20041;-67
2023/01/30 09:34:32;;;;;;;6.95;5.72;;;;;;;;;;5073225;28;20119;-67
2023/01/30 09:37:01;;;;;;;7.90;6.32;;;;;;;;;;5076555;28;20507;-67
2023/01/30 09:39:28;;;;;;;10.68;6.78;;;;;;;;;;5081083;28;20032;-67
2023/01/30 09:42:03;;;;;;;8.32;5.72;;;;;;;;;;5073478;28;20060;-67
2023/01/30 09:44:32;;;;;;;11.63;6.20;;;;;;;;;;5069322;28;20048;-67
2023/01/30 09:47:12;;;;;;;6.45;5.18;;;;;;;;;;5074610;28;20117;-67
2023/01/30 09:49:56;;;;;;;7.85;5.10;;;;;;;;;;5076667;28;20111;-67
2023/01/30 09:52:46;;;;;;;9.23;6.53;;;;;;;;;;5073262;28;20040;-67
2023/01/30 09:55:18;;;;;;;7.07;5.20;;;;;;;;;;5075525;28;20047;-67
2023/01/30 09:57:47;;;;;;;6.40;4.95;;;;;;;;;;5073846;28;20052;-67
2023/01/30 10:00:35;;;;;;;8.68;6.07;;;;;;;;;;5073287;28;20048;-67
2023/01/30 10:03:15;;;;;;;5.30;4.17;;;;;;;;;;5062953;28;20075;-67
2023/01/30 10:05:44;;;;;;;5.85;4.97;;;;;;;;;;5076331;28;20036;-67
2023/01/30 10:08:32;;;;;;;6.97;5.80;;;;;;;;;;5080279;28;20400;-67
2023/01/30 10:11:21;;;;;;;8.20;5.47;;;;;;;;;;5082757;28;20572;-66
2023/01/30 10:14:17;;;;;;;12.73;5.80;;;;;;;;;;5077631;28;20032;-67
2023/01/30 10:17:23;;;;;;;6.32;4.78;;;;;;;;;;5079380;28;20271;-68
2023/01/30 10:19:56;;;;;;;6.22;5.28;;;;;;;;;;5080151;28;20060;-67
2023/01/30 10:22:34;;;;;;;7.07;5.05;;;;;;;;;;5077458;28;20381;-67
2023/01/30 10:25:27;;;;;;;5.20;4.55;;;;;;;;;;5080719;28;20028;-67
2023/01/30 10:28:02;;;;;;;8.32;5.70;;;;;;;;;;5077181;28;20040;-67
2023/01/30 10:30:28;;;;;;;8.65;5.70;;;;;;;;;;5078865;28;20487;-66
2023/01/30 10:33:19;;;;;;;8.65;5.63;;;;;;;;;;5079500;28;20043;-66
2023/01/30 10:35:54;;;;;;;6.70;4.88;;;;;;;;;;5076016;28;20059;-67
2023/01/30 10:38:34;;;;;;;4.55;3.72;;;;;;;;;;5078158;28;20231;-67
2023/01/30 10:41:11;;;;;;;6.38;5.15;;;;;;;;;;5077744;28;20506;-67
2023/01/30 10:43:47;;;;;;;8.10;5.15;;;;;;;;;;5081440;28;20035;-67
2023/01/30 10:46:18;;;;;;;6.85;4.68;;;;;;;;;;5084978;28;20031;-67
2023/01/30 10:48:58;;;;;;;8.40;4.28;;;;;;;;;;5082805;28;20028;-67
2023/01/30 10:51:52;;;;;;;3.45;3.15;;;;;;;;;;5082093;28;20048;-66
2023/01/30 10:54:33;;;;;;;5.07;4.28;;;;;;;;;;5077970;28;20107;-65
2023/01/30 10:57:17;;;;;;;4.78;4.20;;;;;;;;;;5077611;28;20039;-67
2023/01/30 10:59:55;;;;;;;6.53;4.95;;;;;;;;;;5070952;28;20388;-67
2023/01/30 11:02:29;;;;;;;4.57;4.00;;;;;;;;;;5078906;28;20040;-67
2023/01/30 11:05:17;;;;;;;7.22;3.95;;;;;;;;;;5080591;28;20044;-66
2023/01/30 11:07:45;;;;;;;5.68;4.68;;;;;;;;;;5090746;28;20048;-66
2023/01/30 11:10:15;;;;;;;7.60;4.93;;;;;;;;;;5085391;28;20036;-66
2023/01/30 11:12:41;;;;;;;5.50;4.03;;;;;;;;;;5072758;28;20063;-66
2023/01/30 11:15:07;;;;;;;5.93;4.82;;;;;;;;;;5085982;28;20067;-65
2023/01/30 11:17:37;;;;;;;4.72;4.20;;;;;;;;;;5079429;28;20032;-66
2023/01/30 11:20:14;;;;;;;9.48;4.65;;;;;;;;;;5074296;28;20081;-66
2023/01/30 11:22:50;;;;;;;8.60;4.75;;;;;;;;;;5079821;28;20033;-66
2023/01/30 11:25:21;;;;;;;3.63;3.20;;;;;;;;;;5074196;28;20076;-66
2023/01/30 11:27:54;;;;;;;5.22;4.03;;;;;;;;;;5077760;28;20024;-66
2023/01/30 11:30:20;;;;;;;4.25;3.42;;;;;;;;;;5079827;28;20085;-66
2023/01/30 11:32:48;;;;;;;5.78;4.75;;;;;;;;;;5075131;28;20586;-66
2023/01/30 11:35:13;;;;;;;5.45;4.43;;;;;;;;;;5079022;28;20036;-65
2023/01/30 11:37:43;;;;;;;4.95;3.70;;;;;;;;;;5075402;28;20085;-67
2023/01/30 11:40:24;;;;;;;5.57;4.53;;;;;;;;;;5076442;28;20043;-67
2023/01/30 11:43:11;;;;;;;4.35;3.92;;;;;;;;;;5074762;28;20032;-67
2023/01/30 11:45:41;;;;;;;6.47;4.75;;;;;;;;;;5077648;28;20148;-67
2023/01/30 11:48:19;;;;;;;7.18;4.40;;;;;;;;;;5084400;28;20044;-67
2023/01/30 11:50:49;;;;;;;4.70;3.72;;;;;;;;;;5075399;28;20043;-65
2023/01/30 11:53:30;;;;;;;4.75;3.85;;;;;;;;;;5074215;28;20369;-68
2023/01/30 11:55:58;;;;;;;7.30;4.30;;;;;;;;;;5077425;28;20456;-66
2023/01/30 11:58:29;;;;;;;4.25;3.75;;;;;;;;;;5080224;28;20043;-65
2023/01/30 12:00:57;;;;;;;4.57;4.13;;;;;;;;;;5078516;28;20601;-65
2023/01/30 12:03:24;;;;;;;4.32;3.60;;;;;;;;;;5075603;28;20055;-65
2023/01/30 12:05:50;;;;;;;6.88;4.47;;;;;;;;;;5075411;28;20043;-66
2023/01/30 12:08:18;;;;;;;5.43;4.75;;;;;;;;;;5078188;28;20036;-65
2023/01/30 12:10:50;;;;;;;4.93;4.38;;;;;;;;;;5079665;28;20597;-66
2023/01/30 12:13:44;;;;;;;6.00;4.90;;;;;;;;;;5076274;28;20032;-65
2023/01/30 12:16:19;;;;;;;5.85;4.63;;;;;;;;;;5072298;28;20593;-66
2023/01/30 12:18:53;;;;;;;5.63;5.03;;;;;;;;;;5078111;28;20077;-65
2023/01/30 12:21:37;;;;;;;7.60;5.72;;;;;;;;;;5078632;28;20040;-67
2023/01/30 12:24:24;;;;;;;7.90;5.90;;;;;;;;;;5076443;28;20044;-66
2023/01/30 12:27:01;;;;;;;6.82;5.90;;;;;;;;;;5076920;28;20028;-67
2023/01/30 12:29:37;;;;;;;7.50;4.93;;;;;;;;;;5078776;28;20036;-66
2023/01/30 12:32:19;;;;;;;8.02;6.15;;;;;;;;;;5078591;28;20388;-66
2023/01/30 12:34:46;;;;;;;6.97;6.00;;;;;;;;;;5084253;28;20067;-66
2023/01/30 12:37:21;;;;;;;6.78;5.30;;;;;;;;;;5081090;28;20032;-66
2023/01/30 12:40:07;;;;;;;10.15;6.35;;;;;;;;;;5074693;28;20043;-67
2023/01/30 12:42:57;;;;;;;8.82;6.72;;;;;;;;;;5074490;28;20058;-66
2023/01/30 12:45:29;;;;;;;7.38;6.20;;;;;;;;;;5083438;28;20047;-66
2023/01/30 12:48:21;;;;;;;5.05;4.55;;;;;;;;;;5078133;28;20090;-66
2023/01/30 12:51:17;;;;;;;6.22;5.25;;;;;;;;;;5077146;28;20566;-66
2023/01/30 12:54:04;;;;;;;8.00;6.30;;;;;;;;;;5074883;28;20046;-66
2023/01/30 12:56:42;;;;;;;9.25;6.57;;;;;;;;;;5071411;28;20040;-65
2023/01/30 12:59:25;;;;;;;8.32;5.68;;;;;;;;;;5072431;28;20040;-66
2023/01/30 13:02:35;;;;;;;8.43;6.13;;;;;;;;;;5076073;28;20036;-66
2023/01/30 13:05:15;;;;;;;9.57;6.18;;;;;;;;;;5057613;28;20066;-66
2023/01/30 13:08:07;;;;;;;12.30;7.35;;;;;;;;;;5073228;28;20071;-66
2023/01/30 13:10:43;;;;;;;10.02;7.55;;;;;;;;;;5076548;28;20670;-66
2023/01/30 13:13:13;;;;;;;8.18;5.60;;;;;;;;;;5076968;28;20123;-66
2023/01/30 13:15:54;;;;;;;14.48;7.03;;;;;;;;;;5074621;28;20031;-66
2023/01/30 13:18:30;;;;;;;7.07;5.47;;;;;;;;;;5074824;28;20526;-66
2023/01/30 13:21:08;;;;;;;11.10;7.10;;;;;;;;;;5071590;28;20044;-66
2023/01/30 13:24:03;;;;;;;13.40;9.25;;;;;;;;;;5072241;28;20071;-66
2023/01/30 13:26:34;;;;;;;11.00;6.93;;;;;;;;;;5066638;28;21634;-65
2023/01/30 13:29:04;;;;;;;15.57;9.07;;;;;;;;;;5073027;28;20036;-65
2023/01/30 13:31:34;;;;;;;8.68;5.93;;;;;;;;;;5075169;28;20040;-65
2023/01/30 13:34:18;;;;;;;8.20;6.72;;;;;;;;;;5076097;28;20036;-65
2023/01/30 13:36:53;;;;;;;12.85;8.10;;;;;;;;;;5072371;28;20626;-65
2023/01/30 13:39:32;;;;;;;8.48;5.88;;;;;;;;;;5070178;28;20065;-65
2023/01/30 13:42:00;;;;;;;9.90;7.53;;;;;;;;;;5074478;28;20608;-66
2023/01/30 13:44:32;;;;;;;12.30;8.00;;;;;;;;;;5078562;28;20044;-66
2023/01/30 13:47:17;;;;;;;12.77;8.02;;;;;;;;;;5081333;28;20036;-66
2023/01/30 13:50:19;;;;;;;13.88;7.93;;;;;;;;;;5080299;28;20054;-65
2023/01/30 13:52:53;;;;;;;10.55;6.75;;;;;;;;;;5078311;28;20040;-65
2023/01/30 13:55:24;;;;;;;12.98;7.63;;;;;;;;;;5078499;28;20407;-65
2023/01/30 13:58:17;;;;;;;10.30;7.53;;;;;;;;;;5081153;28;20112;-65
2023/01/30 14:00:56;;;;;;;11.07;7.13;;;;;;;;;;5077831;28;20036;-65
2023/01/30 14:03:32;;;;;;;14.03;6.77;;;;;;;;;;5077674;28;20051;-66
2023/01/30 14:06:02;;;;;;;10.25;7.80;;;;;;;;;;5078587;28;20036;-66
2023/01/30 14:08:33;;;;;;;17.65;9.32;;;;;;;;;;5075247;28;20044;-67
2023/01/30 14:10:58;;;;;;;9.95;6.32;;;;;;;;;;5080655;28;20089;-67
2023/01/30 14:13:26;;;;;;;9.68;7.22;;;;;;;;;;5078781;28;20579;-66
2023/01/30 14:16:03;;;;;;;11.07;7.30;;;;;;;;;;5082468;28;20127;-67
2023/01/30 14:18:37;;;;;;;11.10;7.43;;;;;;;;;;5077128;28;20036;-66
2023/01/30 14:21:21;;;;;;;12.75;7.50;;;;;;;;;;5078740;28;20077;-66
2023/01/30 14:23:56;;;;;;;10.27;7.68;;;;;;;;;;5078618;28;20028;-66
2023/01/30 14:26:43;;;;;;;12.32;7.70;;;;;;;;;;5076855;28;20135;-65
2023/01/30 14:29:09;;;;;;;14.00;8.88;;;;;;;;;;5076684;28;20028;-66
2023/01/30 14:31:48;;;;;;;9.95;7.80;;;;;;;;;;5080334;28;20037;-66
2023/01/30 14:34:59;;;;;;;14.30;7.90;;;;;;;;;;5079628;28;20059;-66
2023/01/30 14:37:34;;;;;;;11.82;8.68;;;;;;;;;;5047304;28;20048;-65
2023/01/30 14:40:00;;;;;;;12.68;8.65;;;;;;;;;;5077680;28;20042;-66
2023/01/30 14:42:30;;;;;;;10.80;7.50;;;;;;;;;;5076917;28;20570;-65
2023/01/30 14:44:57;;;;;;;14.32;9.13;;;;;;;;;;5075357;28;20039;-66
2023/01/30 14:47:24;;;;;;;14.13;8.70;;;;;;;;;;5079013;28;20581;-66
2023/01/30 14:49:49;;;;;;;10.82;8.68;;;;;;;;;;5076276;28;20123;-66
2023/01/30 14:52:31;;;;;;;18.40;8.35;;;;;;;;;;5074888;28;20150;-65
2023/01/30 14:54:57;;;;;;;14.98;10.30;;;;;;;;;;5078474;28;20020;-66
2023/01/30 14:57:31;;;;;;;7.22;6.22;;;;;;;;;;5075370;28;20476;-66
2023/01/30 15:00:29;;;;;;;10.13;7.80;;;;;;;;;;5077525;28;20186;-66
2023/01/30 15:03:02;;;;;;;12.50;8.85;;;;;;;;;;5058361;28;20075;-66